createdAt,value
2018-08-09T00:02:17.052Z,99.90
2018-08-09T00:04:47.963Z,99.90
2018-08-09T00:07:18.872Z,99.90
2018-08-09T00:09:49.824Z,99.90
2018-08-09T00:12:21.232Z,99.90
2018-08-09T00:14:52.144Z,99.90
2018-08-09T00:17:23.020Z,99.90
2018-08-09T00:19:53.952Z,99.90
2018-08-09T00:22:24.825Z,99.90
2018-08-09T00:24:55.732Z,99.90
2018-08-09T00:27:26.616Z,99.90
2018-08-09T00:29:57.492Z,99.90
2018-08-09T00:32:28.360Z,99.90
2018-08-09T00:34:59.312Z,99.90
2018-08-09T00:37:30.132Z,99.90
2018-08-09T00:40:01.097Z,99.90
2018-08-09T00:42:31.912Z,99.90
2018-08-09T00:45:02.789Z,99.90
2018-08-09T00:47:33.698Z,99.90
2018-08-09T00:50:05.217Z,99.90
2018-08-09T00:52:36.140Z,99.90
2018-08-09T00:55:07.239Z,99.90
2018-08-09T00:57:38.080Z,99.90
2018-08-09T01:00:09.092Z,99.90
2018-08-09T01:02:39.914Z,99.90
2018-08-09T01:05:11.052Z,99.90
2018-08-09T01:07:41.963Z,99.90
2018-08-09T01:10:12.921Z,99.90
2018-08-09T01:12:44.139Z,99.90
2018-08-09T01:15:15.120Z,99.90
2018-08-09T01:17:46.327Z,99.90
2018-08-09T01:20:17.300Z,99.90
2018-08-09T01:22:48.134Z,99.90
2018-08-09T01:25:19.033Z,99.90
2018-08-09T01:27:49.879Z,99.90
2018-08-09T01:30:20.772Z,99.90
2018-08-09T01:32:51.643Z,99.90
2018-08-09T01:35:22.520Z,99.90
2018-08-09T01:37:53.372Z,99.90
2018-08-09T01:40:24.352Z,99.90
2018-08-09T01:43:11.720Z,99.90
2018-08-09T01:45:42.620Z,99.90
2018-08-09T01:48:13.460Z,99.90
2018-08-09T01:50:44.367Z,99.90
2018-08-09T01:53:15.216Z,99.90
2018-08-09T01:55:46.120Z,99.90
2018-08-09T01:58:17.036Z,99.90
2018-08-09T02:00:48.591Z,99.90
2018-08-09T02:03:19.520Z,99.90
2018-08-09T02:05:50.463Z,99.90
2018-08-09T02:08:21.335Z,99.90
2018-08-09T02:10:52.300Z,99.90
2018-08-09T02:13:23.140Z,99.90
2018-08-09T02:15:54.120Z,99.90
2018-08-09T02:18:24.972Z,99.90
2018-08-09T02:20:55.920Z,99.90
2018-08-09T02:23:26.760Z,99.90
2018-08-09T02:25:57.720Z,99.90
2018-08-09T02:28:28.661Z,99.90
2018-08-09T02:31:00.100Z,99.90
2018-08-09T02:33:30.992Z,99.90
2018-08-09T02:36:02.360Z,99.90
2018-08-09T02:38:33.200Z,99.90
2018-08-09T02:41:04.141Z,99.90
2018-08-09T02:43:35.053Z,99.90
2018-08-09T02:46:06.134Z,99.90
2018-08-09T02:48:36.961Z,99.90
2018-08-09T02:51:07.880Z,99.90
2018-08-09T02:53:38.720Z,99.90
2018-08-09T02:56:09.652Z,99.90
2018-08-09T02:58:40.523Z,99.90
2018-08-09T03:01:11.566Z,99.90
2018-08-09T03:03:42.453Z,99.90
2018-08-09T03:06:13.381Z,99.90
2018-08-09T03:08:44.292Z,99.90
2018-08-09T03:11:15.202Z,99.90
2018-08-09T03:13:46.100Z,99.90
2018-08-09T03:16:16.992Z,99.90
2018-08-09T03:18:47.933Z,99.90
2018-08-09T03:21:18.924Z,99.90
2018-08-09T03:23:49.781Z,99.90
2018-08-09T03:26:20.700Z,99.90
2018-08-09T03:28:51.564Z,99.90
2018-08-09T03:31:22.452Z,99.90
2018-08-09T03:33:53.359Z,99.90
2018-08-09T03:36:24.299Z,99.90
2018-08-09T03:38:55.160Z,99.90
2018-08-09T03:41:26.059Z,99.90
2018-08-09T03:43:56.920Z,99.90
2018-08-09T03:46:27.801Z,99.90
2018-08-09T03:48:58.752Z,99.90
2018-08-09T03:51:29.679Z,99.90
2018-08-09T03:54:00.595Z,99.90
2018-08-09T03:56:31.480Z,99.90
2018-08-09T03:59:02.399Z,99.90
2018-08-09T04:01:33.460Z,99.90
2018-08-09T04:04:04.364Z,99.90
2018-08-09T04:06:35.280Z,99.90
2018-08-09T04:09:10.938Z,99.90
2018-08-09T04:11:42.168Z,99.90
2018-08-09T04:14:13.040Z,99.90
2018-08-09T04:16:43.852Z,99.90
2018-08-09T04:19:14.700Z,99.90
2018-08-09T04:21:45.944Z,99.90
2018-08-09T04:24:16.832Z,99.90
2018-08-09T04:26:47.675Z,99.90
2018-08-09T04:29:18.520Z,99.90
2018-08-09T04:31:49.441Z,99.90
2018-08-09T04:34:20.300Z,99.90
2018-08-09T04:36:51.153Z,99.90
2018-08-09T04:39:21.996Z,99.90
2018-08-09T04:41:52.892Z,99.90
2018-08-09T04:44:23.753Z,99.90
2018-08-09T04:46:54.671Z,99.90
2018-08-09T04:49:25.730Z,99.90
2018-08-09T04:51:57.453Z,99.90
2018-08-09T04:54:28.460Z,99.90
2018-08-09T04:56:59.459Z,99.90
2018-08-09T04:59:30.300Z,99.90
2018-08-09T05:02:01.301Z,99.90
2018-08-09T05:04:32.142Z,99.90
2018-08-09T05:07:03.044Z,99.90
2018-08-09T05:09:34.287Z,99.90
2018-08-09T05:12:05.472Z,99.90
2018-08-09T05:14:36.356Z,99.90
2018-08-09T05:17:07.420Z,99.90
2018-08-09T05:19:38.434Z,99.90
2018-08-09T05:22:09.504Z,99.90
2018-08-09T05:24:40.443Z,99.90
2018-08-09T05:27:11.392Z,99.90
2018-08-09T05:29:45.283Z,99.90
2018-08-09T05:32:16.213Z,99.90
2018-08-09T05:34:47.452Z,99.90
2018-08-09T05:37:18.421Z,99.90
2018-08-09T05:39:49.348Z,99.90
2018-08-09T05:42:20.232Z,99.90
2018-08-09T05:44:51.135Z,99.90
2018-08-09T05:47:22.080Z,99.90
2018-08-09T05:49:52.941Z,99.90
2018-08-09T05:52:23.873Z,99.90
2018-08-09T05:54:54.700Z,99.90
2018-08-09T05:57:25.600Z,99.90
2018-08-09T05:59:56.524Z,99.90
2018-08-09T06:02:28.172Z,99.90
2018-08-09T06:04:59.092Z,99.90
2018-08-09T06:07:29.980Z,99.90
2018-08-09T06:10:00.873Z,99.90
2018-08-09T06:12:32.703Z,99.90
2018-08-09T06:15:03.665Z,99.90
2018-08-09T06:17:34.596Z,99.90
2018-08-09T06:20:06.299Z,99.90
2018-08-09T06:22:37.519Z,99.90
2018-08-09T06:25:08.838Z,99.90
2018-08-09T06:27:39.800Z,99.90
2018-08-09T06:30:11.885Z,99.90
2018-08-09T06:32:42.804Z,99.90
2018-08-09T06:35:13.732Z,99.90
2018-08-09T06:37:44.656Z,99.90
2018-08-09T06:40:15.851Z,99.90
2018-08-09T06:42:46.817Z,99.90
2018-08-09T06:45:17.712Z,99.90
2018-08-09T06:47:48.623Z,99.90
2018-08-09T06:50:19.443Z,99.90
2018-08-09T06:52:50.438Z,99.90
2018-08-09T06:55:21.319Z,99.90
2018-08-09T06:57:52.173Z,99.90
2018-08-09T07:00:23.198Z,99.90
2018-08-09T07:02:54.126Z,99.90
2018-08-09T07:05:24.960Z,99.90
2018-08-09T07:07:55.836Z,99.90
2018-08-09T07:10:26.761Z,99.90
2018-08-09T07:12:57.722Z,99.90
2018-08-09T07:15:28.602Z,99.90
2018-08-09T07:17:59.520Z,99.90
2018-08-09T07:20:30.503Z,99.90
2018-08-09T07:23:01.493Z,99.90
2018-08-09T07:25:32.436Z,99.90
2018-08-09T07:28:03.429Z,99.90
2018-08-09T07:30:34.423Z,99.90
2018-08-09T07:33:05.374Z,99.90
2018-08-09T07:35:36.302Z,99.90
2018-08-09T07:38:07.334Z,99.90
2018-08-09T07:40:38.293Z,99.90
2018-08-09T07:43:09.421Z,99.90
2018-08-09T07:45:40.253Z,99.90
2018-08-09T07:48:11.360Z,99.90
2018-08-09T07:50:42.303Z,99.90
2018-08-09T07:53:13.224Z,99.90
2018-08-09T07:55:44.081Z,99.90
2018-08-09T07:58:15.219Z,99.90
2018-08-09T08:00:46.101Z,99.90
2018-08-09T08:03:17.054Z,99.90
2018-08-09T08:05:48.062Z,99.90
2018-08-09T08:08:19.100Z,99.90
2018-08-09T08:10:50.135Z,99.90
2018-08-09T08:13:21.543Z,99.90
2018-08-09T08:15:52.420Z,99.90
2018-08-09T08:18:23.367Z,99.90
2018-08-09T08:20:54.356Z,99.90
2018-08-09T08:23:25.300Z,99.90
2018-08-09T08:25:56.180Z,99.90
2018-08-09T08:28:27.132Z,99.90
2018-08-09T08:30:58.000Z,99.90
2018-08-09T08:33:28.864Z,99.90
2018-08-09T08:35:59.954Z,99.90
2018-08-09T08:38:30.971Z,99.90
2018-08-09T08:41:01.881Z,99.90
2018-08-09T08:43:32.819Z,99.90
2018-08-09T08:46:03.799Z,99.90
2018-08-09T08:48:34.788Z,99.90
2018-08-09T08:51:05.775Z,99.90
2018-08-09T08:53:36.811Z,99.90
2018-08-09T08:56:07.795Z,99.90
2018-08-09T08:58:38.845Z,99.90
2018-08-09T09:01:09.771Z,99.90
2018-08-09T09:03:40.693Z,99.90
2018-08-09T09:06:11.602Z,99.90
2018-08-09T09:08:42.635Z,99.90
2018-08-09T09:11:13.749Z,99.90
2018-08-09T09:13:44.825Z,99.90
2018-08-09T09:16:15.931Z,99.90
2018-08-09T09:18:47.096Z,99.90
2018-08-09T09:21:18.081Z,99.90
2018-08-09T09:23:49.079Z,99.90
2018-08-09T09:26:19.974Z,99.90
2018-08-09T09:28:50.968Z,99.90
2018-08-09T09:31:21.841Z,99.90
2018-08-09T09:33:52.773Z,99.90
2018-08-09T09:36:23.652Z,99.90
2018-08-09T09:38:54.600Z,99.90
2018-08-09T09:41:25.548Z,99.90
2018-08-09T09:43:56.420Z,99.90
2018-08-09T09:46:27.375Z,99.90
2018-08-09T09:48:58.297Z,99.90
2018-08-09T09:51:29.234Z,99.90
2018-08-09T09:54:00.620Z,99.90
2018-08-09T09:56:31.552Z,99.90
2018-08-09T09:59:02.533Z,99.90
2018-08-09T10:01:35.455Z,99.90
2018-08-09T10:04:07.316Z,99.90
2018-08-09T10:06:38.327Z,99.90
2018-08-09T10:09:12.616Z,99.90
2018-08-09T10:11:43.532Z,99.90
2018-08-09T10:14:14.432Z,99.90
2018-08-09T10:16:45.379Z,99.90
2018-08-09T10:19:16.305Z,99.90
2018-08-09T10:21:47.192Z,99.90
2018-08-09T10:24:18.251Z,99.90
2018-08-09T10:26:49.222Z,99.90
2018-08-09T10:29:20.152Z,99.90
2018-08-09T10:31:51.081Z,99.90
2018-08-09T10:34:22.106Z,99.90
2018-08-09T10:36:53.029Z,99.90
2018-08-09T10:39:24.003Z,99.90
2018-08-09T10:41:54.925Z,99.90
2018-08-09T10:44:25.900Z,99.90
2018-08-09T10:46:56.812Z,99.90
2018-08-09T10:49:27.797Z,99.90
2018-08-09T10:51:58.660Z,99.90
2018-08-09T10:54:29.629Z,99.90
2018-08-09T10:57:00.473Z,99.90
2018-08-09T10:59:31.549Z,99.90
2018-08-09T11:02:02.566Z,99.90
2018-08-09T11:04:33.498Z,99.90
2018-08-09T11:07:04.435Z,99.90
2018-08-09T11:09:35.411Z,99.90
2018-08-09T11:12:06.336Z,99.90
2018-08-09T11:14:37.264Z,99.90
2018-08-09T11:17:08.157Z,99.90
2018-08-09T11:19:39.145Z,99.90
2018-08-09T11:22:10.029Z,99.90
2018-08-09T11:24:40.992Z,99.90
2018-08-09T11:27:11.961Z,99.90
2018-08-09T11:29:42.859Z,99.90
2018-08-09T11:32:13.763Z,99.90
2018-08-09T11:34:44.660Z,99.90
2018-08-09T11:37:15.601Z,99.90
2018-08-09T11:39:46.543Z,99.90
2018-08-09T11:42:17.434Z,99.90
2018-08-09T11:44:48.336Z,99.90
2018-08-09T11:47:19.347Z,99.90
2018-08-09T11:49:50.321Z,99.90
2018-08-09T11:52:21.238Z,99.90
2018-08-09T11:54:52.212Z,99.90
2018-08-09T11:57:23.040Z,99.90
2018-08-09T11:59:54.020Z,99.90
2018-08-09T12:02:24.947Z,99.90
2018-08-09T12:04:55.829Z,99.90
2018-08-09T12:07:26.908Z,99.90
2018-08-09T12:09:57.780Z,99.90
2018-08-09T12:12:28.712Z,99.90
2018-08-09T12:14:59.688Z,99.90
2018-08-09T12:17:30.700Z,99.90
2018-08-09T12:20:01.758Z,99.90
2018-08-09T12:22:32.760Z,99.90
2018-08-09T12:25:03.805Z,99.90
2018-08-09T12:27:35.208Z,99.90
2018-08-09T12:30:09.232Z,99.90
2018-08-09T12:32:40.256Z,99.90
2018-08-09T12:35:13.228Z,99.90
2018-08-09T12:37:45.153Z,99.90
2018-08-09T12:40:16.115Z,99.90
2018-08-09T12:42:47.091Z,99.90
2018-08-09T12:45:20.286Z,99.90
2018-08-09T12:47:51.261Z,99.90
2018-08-09T12:50:22.312Z,99.90
2018-08-09T12:52:53.180Z,99.90
2018-08-09T12:55:24.228Z,99.90
2018-08-09T12:57:55.159Z,99.90
2018-08-09T13:00:26.299Z,99.90
2018-08-09T13:02:57.228Z,99.90
2018-08-09T13:05:28.277Z,99.90
2018-08-09T13:07:59.214Z,99.90
2018-08-09T13:10:30.482Z,99.90
2018-08-09T13:13:01.368Z,99.90
2018-08-09T13:15:32.472Z,99.90
2018-08-09T13:18:03.459Z,99.90
2018-08-09T13:20:34.400Z,99.90
2018-08-09T13:23:05.282Z,99.90
2018-08-09T13:25:36.199Z,99.90
2018-08-09T13:28:07.599Z,99.90
2018-08-09T13:30:40.721Z,99.90
2018-08-09T13:33:11.746Z,99.90
2018-08-09T13:35:44.628Z,99.90
2018-08-09T13:38:16.433Z,99.90
2018-08-09T13:40:47.297Z,99.90
2018-08-09T13:43:19.092Z,99.90
2018-08-09T13:45:50.115Z,99.90
2018-08-09T13:48:21.060Z,99.90
2018-08-09T13:50:52.064Z,99.90
2018-08-09T13:53:22.948Z,99.90
2018-08-09T13:55:54.260Z,99.90
2018-08-09T13:58:25.273Z,98.90
2018-08-09T14:00:56.323Z,99.00
2018-08-09T14:03:27.259Z,98.90
2018-08-09T14:05:59.045Z,99.70
2018-08-09T14:08:30.059Z,99.60
2018-08-09T14:11:01.047Z,99.90
2018-08-09T14:13:31.972Z,98.90
2018-08-09T14:16:02.969Z,99.90
2018-08-09T14:18:33.980Z,98.90
2018-08-09T14:21:05.005Z,99.90
2018-08-09T14:23:35.924Z,99.80
2018-08-09T14:26:06.925Z,98.70
2018-08-09T14:28:37.865Z,98.00
2018-08-09T14:31:08.860Z,99.00
2018-08-09T14:33:40.000Z,95.80
2018-08-09T14:36:10.937Z,94.00
2018-08-09T14:38:41.889Z,94.10
2018-08-09T14:41:13.256Z,94.80
2018-08-09T14:43:44.237Z,93.70
2018-08-09T14:46:15.613Z,91.70
2018-08-09T14:48:46.538Z,91.20
2018-08-09T14:51:17.650Z,90.90
2018-08-09T14:53:49.080Z,91.40
2018-08-09T14:56:20.081Z,90.50
2018-08-09T14:58:51.103Z,89.40
2018-08-09T15:01:22.187Z,89.90
2018-08-09T15:03:53.151Z,88.10
2018-08-09T15:06:24.185Z,88.30
2018-08-09T15:08:55.120Z,89.50
2018-08-09T15:11:26.505Z,89.50
2018-08-09T15:13:57.431Z,89.60
2018-08-09T15:16:28.563Z,87.40
2018-08-09T15:18:59.503Z,84.70
2018-08-09T15:21:30.583Z,85.30
2018-08-09T15:24:01.659Z,86.10
2018-08-09T15:26:36.064Z,85.60
2018-08-09T15:29:08.986Z,82.10
2018-08-09T15:31:40.028Z,82.60
2018-08-09T15:34:11.733Z,81.20
2018-08-09T15:36:43.039Z,82.00
2018-08-09T15:39:14.822Z,81.40
2018-08-09T15:41:45.780Z,86.30
2018-08-09T15:44:16.717Z,85.70
2018-08-09T15:46:47.841Z,80.00
2018-08-09T15:49:18.819Z,80.40
2018-08-09T15:51:49.827Z,79.90
2018-08-09T15:54:20.761Z,83.10
2018-08-09T15:56:51.721Z,85.70
2018-08-09T15:59:22.640Z,81.90
2018-08-09T16:01:53.747Z,79.80
2018-08-09T16:04:25.137Z,78.10
2018-08-09T16:06:56.161Z,82.60
2018-08-09T16:09:27.025Z,85.30
2018-08-09T16:11:57.948Z,79.20
2018-08-09T16:14:28.995Z,80.60
2018-08-09T16:16:59.931Z,78.90
2018-08-09T16:19:30.898Z,79.50
2018-08-09T16:22:02.144Z,83.80
2018-08-09T16:24:33.153Z,82.70
2018-08-09T16:27:04.340Z,85.60
2018-08-09T16:29:35.338Z,87.70
2018-08-09T16:32:06.376Z,90.50
2018-08-09T16:34:37.333Z,81.30
2018-08-09T16:37:08.867Z,81.20
2018-08-09T16:39:39.890Z,77.20
2018-08-09T16:42:10.955Z,78.80
2018-08-09T16:44:43.071Z,75.20
2018-08-09T16:47:17.061Z,73.20
2018-08-09T16:49:50.680Z,85.60
2018-08-09T16:52:23.013Z,77.80
2018-08-09T16:54:54.198Z,91.00
2018-08-09T16:57:25.339Z,91.50
2018-08-09T16:59:57.056Z,94.50
2018-08-09T17:02:28.186Z,93.90
2018-08-09T17:04:59.208Z,94.10
2018-08-09T17:07:30.328Z,94.90
2018-08-09T17:10:01.341Z,94.40
2018-08-09T17:12:32.473Z,94.90
2018-08-09T17:15:03.546Z,95.40
2018-08-09T17:17:34.532Z,96.50
2018-08-09T17:20:09.453Z,93.70
2018-08-09T17:22:40.780Z,94.10
2018-08-09T17:25:13.915Z,93.50
2018-08-09T17:27:46.228Z,91.90
2018-08-09T17:30:19.892Z,92.50
2018-08-09T17:32:51.001Z,93.60
2018-08-09T17:35:22.300Z,93.90
2018-08-09T17:37:53.715Z,95.90
2018-08-09T17:40:30.900Z,97.80
2018-08-09T17:43:02.709Z,98.80
2018-08-09T17:45:35.825Z,99.90
2018-08-09T17:48:07.180Z,99.90
2018-08-09T17:50:38.201Z,99.90
2018-08-09T17:53:10.365Z,99.90
2018-08-09T17:55:41.354Z,99.90
2018-08-09T17:58:12.400Z,99.90
2018-08-09T18:00:44.558Z,99.90
2018-08-09T18:03:18.054Z,99.90
2018-08-09T18:05:48.968Z,99.90
2018-08-09T18:08:20.011Z,99.90
2018-08-09T18:10:50.952Z,99.90
2018-08-09T18:13:22.021Z,99.90
2018-08-09T18:15:53.013Z,99.90
2018-08-09T18:18:24.013Z,99.90
2018-08-09T18:20:54.964Z,99.90
2018-08-09T18:23:26.079Z,99.90
2018-08-09T18:25:57.062Z,99.90
2018-08-09T18:28:28.114Z,99.90
2018-08-09T18:30:59.280Z,99.90
2018-08-09T18:33:30.350Z,99.90
2018-08-09T18:36:01.334Z,99.90
2018-08-09T18:38:32.834Z,99.90
2018-08-09T18:41:03.874Z,99.90
2018-08-09T18:43:35.124Z,99.90
2018-08-09T18:46:06.163Z,99.90
2018-08-09T18:48:37.965Z,99.90
2018-08-09T18:51:09.113Z,99.90
2018-08-09T18:53:40.159Z,99.90
2018-08-09T18:56:11.488Z,99.90
2018-08-09T18:58:42.496Z,99.90
2018-08-09T19:01:13.875Z,99.90
2018-08-09T19:03:45.420Z,99.90
2018-08-09T19:06:16.463Z,99.90
2018-08-09T19:08:47.494Z,99.90
2018-08-09T19:11:19.444Z,99.90
2018-08-09T19:13:50.580Z,99.90
2018-08-09T19:16:21.579Z,99.90
2018-08-09T19:18:52.721Z,99.90
2018-08-09T19:21:24.414Z,99.90
2018-08-09T19:23:55.464Z,99.90
2018-08-09T19:26:27.340Z,99.90
2018-08-09T19:28:59.176Z,99.90
2018-08-09T19:31:30.241Z,99.90
2018-08-09T19:34:03.181Z,99.90
2018-08-09T19:36:34.421Z,99.90
2018-08-09T19:39:10.249Z,99.90
2018-08-09T19:41:42.754Z,99.90
2018-08-09T19:45:00.213Z,99.90
2018-08-09T19:47:31.221Z,99.90
2018-08-09T19:50:02.195Z,99.90
2018-08-09T19:52:33.200Z,99.90
2018-08-09T19:55:04.332Z,99.90
2018-08-09T19:57:35.332Z,99.90
2018-08-09T20:00:09.366Z,99.90
2018-08-09T20:02:40.380Z,99.90
2018-08-09T20:05:12.213Z,99.90
2018-08-09T20:07:43.363Z,99.90
2018-08-09T20:10:15.074Z,99.90
2018-08-09T20:12:46.992Z,99.90
2018-08-09T20:15:21.501Z,99.90
2018-08-09T20:17:52.721Z,99.90
2018-08-09T20:20:25.593Z,99.90
2018-08-09T20:22:56.729Z,99.90
2018-08-09T20:25:27.705Z,99.90
2018-08-09T20:27:58.721Z,99.90
2018-08-09T20:30:30.421Z,99.90
2018-08-09T20:33:01.969Z,99.90
2018-08-09T20:35:33.008Z,99.90
2018-08-09T20:38:04.068Z,99.90
2018-08-09T20:40:35.156Z,99.90
2018-08-09T20:43:06.143Z,99.90
2018-08-09T20:45:37.111Z,99.90
2018-08-09T20:48:08.240Z,99.90
2018-08-09T20:50:39.256Z,99.90
2018-08-09T20:53:10.205Z,99.90
2018-08-09T20:55:41.418Z,99.90
2018-08-09T20:58:12.501Z,99.90
2018-08-09T21:00:43.524Z,99.90
2018-08-09T21:03:14.456Z,99.90
2018-08-09T21:05:45.501Z,99.90
2018-08-09T21:08:17.210Z,99.90
2018-08-09T21:10:48.193Z,99.90
2018-08-09T21:13:19.112Z,99.90
2018-08-09T21:15:50.086Z,99.90
2018-08-09T21:18:21.033Z,99.90
2018-08-09T21:20:52.521Z,99.90
2018-08-09T21:23:23.485Z,99.90
2018-08-09T21:25:54.520Z,99.90
2018-08-09T21:28:25.401Z,99.90
2018-08-09T21:30:56.340Z,99.90
2018-08-09T21:33:27.669Z,99.90
2018-08-09T21:36:09.223Z,99.90
2018-08-09T21:38:40.132Z,99.90
2018-08-09T21:41:11.036Z,99.90
2018-08-09T21:43:42.021Z,99.90
2018-08-09T21:46:12.930Z,99.90
2018-08-09T21:48:44.461Z,99.90
2018-08-09T21:51:15.487Z,99.90
2018-08-09T21:53:46.428Z,99.90
2018-08-09T21:56:17.373Z,99.90
2018-08-09T21:58:48.614Z,99.90
2018-08-09T22:01:19.672Z,99.90
2018-08-09T22:03:50.595Z,99.90
2018-08-09T22:06:26.732Z,99.90
2018-08-09T22:09:02.794Z,99.90
2018-08-09T22:11:38.792Z,99.90
2018-08-09T22:14:14.832Z,99.90
2018-08-09T22:16:50.833Z,99.90
2018-08-09T22:19:26.760Z,99.90
2018-08-09T22:22:02.989Z,99.90
2018-08-09T22:24:34.309Z,99.90
2018-08-09T22:27:06.043Z,99.90
2018-08-09T22:29:36.939Z,99.90
2018-08-09T22:32:08.000Z,99.90
2018-08-09T22:34:38.884Z,99.90
2018-08-09T22:37:09.958Z,99.90
2018-08-09T22:39:40.901Z,99.90
2018-08-09T22:42:11.892Z,99.90
2018-08-09T22:44:42.838Z,99.90
2018-08-09T22:47:13.792Z,99.90
2018-08-09T22:49:44.679Z,99.90
2018-08-09T22:52:15.600Z,99.90
2018-08-09T22:54:46.505Z,99.90
2018-08-09T22:57:17.352Z,99.90
2018-08-09T22:59:48.291Z,99.90
2018-08-09T23:02:19.210Z,99.90
2018-08-09T23:04:50.102Z,99.90
2018-08-09T23:07:21.062Z,99.90
2018-08-09T23:09:51.872Z,99.90
2018-08-09T23:12:22.860Z,99.90
2018-08-09T23:14:53.802Z,99.90
2018-08-09T23:17:24.744Z,99.90
2018-08-09T23:19:55.676Z,99.90
2018-08-09T23:22:26.612Z,99.90
2018-08-09T23:24:57.491Z,99.90
2018-08-09T23:27:28.432Z,99.90
2018-08-09T23:29:59.272Z,99.90
2018-08-09T23:32:30.281Z,99.90
2018-08-09T23:35:01.141Z,99.90
2018-08-09T23:37:32.059Z,99.90
2018-08-09T23:40:02.940Z,99.90
2018-08-09T23:42:34.251Z,99.90
2018-08-09T23:45:06.240Z,99.90
2018-08-09T23:47:38.825Z,99.90
2018-08-09T23:50:11.885Z,99.90
2018-08-09T23:52:43.275Z,99.90
2018-08-09T23:55:16.584Z,99.90
2018-08-09T23:57:47.592Z,99.90
